Time;durP1;ratioP1;P1;durP2;ratioP2;P2;SDS_P1;SDS_P2;PMS_P1;PMS_P2;Temp;Humidity;BMP_temperature;BMP_pressure;BME280_temperature;BME280_humidity;BME280_pressure;Samples;Min_cycle;Max_cycle;Signal;HPM_P1;HPM_P2
2022/09/30 00:01:17;;;;;;;2.20;0.88;;;;;;;;;;4990803;28;20027;-78
2022/09/30 00:03:43;;;;;;;1.40;0.63;;;;;;;;;;4990808;28;20038;-78
2022/09/30 00:06:09;;;;;;;0.63;0.63;;;;;;;;;;4991025;28;20026;-77
2022/09/30 00:08:39;;;;;;;1.35;0.98;;;8.60;99.90;;;;;;4990675;28;20026;-78
2022/09/30 00:11:15;;;;;;;1.42;1.33;;;8.70;99.90;;;;;;4990841;28;20041;-78
2022/09/30 00:13:41;;;;;;;1.17;1.17;;;8.70;99.90;;;;;;4990644;28;20151;-77
2022/09/30 00:16:10;;;;;;;2.13;1.13;;;8.70;99.90;;;;;;4990597;28;20038;-78
2022/09/30 00:18:37;;;;;;;6.72;2.75;;;8.80;99.90;;;;;;4990707;28;20022;-78
2022/09/30 00:21:03;;;;;;;3.78;3.00;;;;;;;;;;4990501;28;20084;-78
2022/09/30 00:23:29;;;;;;;3.67;2.90;;;;;;;;;;4990614;28;20116;-78
2022/09/30 00:26:04;;;;;;;4.65;2.30;;;8.90;99.90;;;;;;4972984;28;20043;-78
2022/09/30 00:28:30;;;;;;;3.92;2.38;;;;;;;;;;4990056;28;20052;-78
2022/09/30 00:31:00;;;;;;;7.30;3.80;;;8.90;99.90;;;;;;4990208;28;20442;-78
2022/09/30 00:33:26;;;;;;;5.38;2.85;;;;;;;;;;4990297;28;20113;-78
2022/09/30 00:35:52;;;;;;;5.22;3.60;;;;;;;;;;5009022;28;20057;-78
2022/09/30 00:38:18;;;;;;;5.80;3.58;;;;;;;;;;5010106;28;20320;-77
2022/09/30 00:40:44;;;;;;;5.53;3.83;;;;;;;;;;5010064;28;20602;-78
2022/09/30 00:43:16;;;;;;;4.18;3.70;;;8.90;99.90;;;;;;5009930;28;20213;-78
2022/09/30 00:45:56;;;;;;;4.22;3.30;;;8.90;99.90;;;;;;5008241;28;20032;-78
2022/09/30 00:48:37;;;;;;;3.72;3.20;;;9.00;99.90;;;;;;5004997;28;20034;-78
2022/09/30 00:51:05;;;;;;;5.05;3.47;;;9.00;99.90;;;;;;4990768;28;20137;-78
2022/09/30 00:53:42;;;;;;;5.75;4.05;;;9.00;99.90;;;;;;4990385;28;20221;-78
2022/09/30 00:56:08;;;;;;;4.82;3.25;;;;;;;;;;4990065;28;20398;-78
2022/09/30 00:58:51;;;;;;;9.05;4.43;;;9.50;99.90;;;;;;4990285;28;20035;-78
2022/09/30 01:01:18;;;;;;;10.20;3.42;;;9.20;99.90;;;;;;4990241;28;20033;-78
2022/09/30 01:04:09;;;;;;;4.05;3.63;;;9.20;99.90;;;;;;4990402;28;20037;-78
2022/09/30 01:06:35;;;;;;;6.00;3.75;;;;;;;;;;4983836;28;20193;-78
2022/09/30 01:09:01;;;;;;;9.00;4.32;;;9.40;99.90;;;;;;4990250;28;20510;-78
2022/09/30 01:11:27;;;;;;;6.88;3.13;;;;;;;;;;4989890;28;20125;-78
2022/09/30 01:13:58;;;;;;;6.82;4.50;;;9.30;99.90;;;;;;4991687;28;20026;-78
2022/09/30 01:16:42;;;;;;;5.30;4.32;;;9.30;99.90;;;;;;4993942;28;20022;-77
2022/09/30 01:19:20;;;;;;;11.70;5.32;;;9.30;99.90;;;;;;4976576;28;20022;-77
2022/09/30 01:21:46;;;;;;;8.65;3.13;;;;;;;;;;4993764;28;20030;-78
2022/09/30 01:24:37;;;;;;;6.00;3.78;;;9.30;99.90;;;;;;4976464;28;20447;-78
2022/09/30 01:27:33;;;;;;;7.25;3.67;;;9.10;99.90;;;;;;4993557;28;20061;-78
2022/09/30 01:30:19;;;;;;;4.93;2.78;;;9.30;99.90;;;;;;4993478;28;20214;-78
2022/09/30 01:32:59;;;;;;;6.90;4.95;;;9.30;99.90;;;;;;4993936;28;20049;-78
2022/09/30 01:35:41;;;;;;;4.03;3.35;;;9.30;99.90;;;;;;5021817;28;20095;-78
2022/09/30 01:38:29;;;;;;;4.03;3.65;;;9.30;99.90;;;;;;5032855;28;20466;-78
2022/09/30 01:41:12;;;;;;;6.18;4.03;;;9.40;99.90;;;;;;5031415;28;20067;-78
2022/09/30 01:44:12;;;;;;;5.35;3.83;;;9.40;99.90;;;;;;5032457;28;20040;-78
2022/09/30 01:47:10;;;;;;;7.13;3.88;;;9.40;99.90;;;;;;5021366;28;20037;-78
2022/09/30 01:49:53;;;;;;;11.18;5.50;;;9.30;99.90;;;;;;5028122;28;20048;-77
2022/09/30 01:52:24;;;;;;;7.35;4.65;;;9.30;99.90;;;;;;5032732;28;20017;-78
2022/09/30 01:55:02;;;;;;;6.18;3.63;;;9.30;99.90;;;;;;5034231;28;20024;-78
2022/09/30 01:57:35;;;;;;;8.23;4.30;;;9.20;99.90;;;;;;5033749;28;20053;-78
2022/09/30 02:00:08;;;;;;;7.40;4.65;;;9.20;99.90;;;;;;5032156;28;20314;-78
2022/09/30 02:02:52;;;;;;;8.20;5.03;;;9.10;99.90;;;;;;5032556;28;20087;-76
2022/09/30 02:05:23;;;;;;;12.15;5.95;;;9.10;99.90;;;;;;5032618;28;20053;-78
2022/09/30 02:07:55;;;;;;;6.88;5.22;;;9.20;99.90;;;;;;5032411;28;20030;-78
2022/09/30 02:10:37;;;;;;;6.80;4.80;;;9.20;99.90;;;;;;5032910;28;20044;-78
2022/09/30 02:13:24;;;;;;;11.30;4.20;;;9.10;99.90;;;;;;5032321;28;20149;-77
2022/09/30 02:16:00;;;;;;;9.02;5.25;;;9.10;99.90;;;;;;5030699;28;20478;-78
2022/09/30 02:18:34;;;;;;;9.13;4.85;;;9.10;99.90;;;;;;5032173;28;20055;-78
2022/09/30 02:21:02;;;;;;;8.85;4.30;;;9.10;99.90;;;;;;5014567;28;20125;-78
2022/09/30 02:23:32;;;;;;;5.97;4.87;;;9.10;99.90;;;;;;5032085;28;20029;-78
2022/09/30 02:26:06;;;;;;;7.53;4.50;;;9.20;99.90;;;;;;5031981;28;20283;-78
2022/09/30 02:28:35;;;;;;;10.15;5.28;;;9.20;99.90;;;;;;5031697;28;20524;-77
2022/09/30 02:31:04;;;;;;;8.25;4.25;;;9.20;99.90;;;;;;5014140;28;20029;-78
2022/09/30 02:33:45;;;;;;;7.13;4.38;;;9.20;99.90;;;;;;5031804;28;20037;-77
2022/09/30 02:36:30;;;;;;;10.15;4.75;;;9.20;99.90;;;;;;5031723;28;20034;-78
2022/09/30 02:39:04;;;;;;;9.35;4.63;;;9.30;99.90;;;;;;5014272;28;20022;-78
2022/09/30 02:41:36;;;;;;;9.10;5.72;;;9.30;99.90;;;;;;5013950;28;20030;-78
2022/09/30 02:44:02;;;;;;;13.73;5.35;;;;;;;;;;5031817;28;20075;-77
2022/09/30 02:46:46;;;;;;;6.97;4.75;;;9.20;99.90;;;;;;5013956;28;20041;-78
2022/09/30 02:49:45;;;;;;;8.50;5.00;;;9.30;99.90;;;;;;5031856;28;20359;-77
2022/09/30 02:52:46;;;;;;;8.05;5.38;;;9.30;99.90;;;;;;5031694;28;20026;-77
2022/09/30 02:55:32;;;;;;;11.23;7.22;;;9.20;99.90;;;;;;5037780;28;20034;-78
2022/09/30 02:58:16;;;;;;;15.60;7.43;;;9.20;99.90;;;;;;5035174;28;20068;-78
2022/09/30 03:00:42;;;;;;;17.05;6.85;;;;;;;;;;5036372;28;20022;-78
2022/09/30 03:03:17;;;;;;;9.88;5.47;;;9.20;99.90;;;;;;5036224;28;20022;-78
2022/09/30 03:05:43;;;;;;;16.92;7.70;;;9.20;99.90;;;;;;5036120;28;20022;-78
2022/09/30 03:08:10;;;;;;;11.27;7.13;;;9.10;99.90;;;;;;5014646;28;20124;-78
2022/09/30 03:10:37;;;;;;;6.85;5.38;;;9.10;99.90;;;;;;5031914;28;20106;-78
2022/09/30 03:13:21;;;;;;;12.90;6.55;;;9.10;99.90;;;;;;5031261;28;20453;-78
2022/09/30 03:15:54;;;;;;;11.60;5.60;;;9.10;99.90;;;;;;5031435;28;20490;-78
2022/09/30 03:18:57;;;;;;;13.52;6.32;;;9.20;99.90;;;;;;5031212;28;20289;-78
2022/09/30 03:21:23;;;;;;;8.70;4.75;;;;;;;;;;5031680;28;20025;-78
2022/09/30 03:24:20;;;;;;;9.95;6.45;;;9.10;99.90;;;;;;5013270;28;20105;-78
2022/09/30 03:27:04;;;;;;;8.90;6.18;;;9.10;99.90;;;;;;5031131;28;20029;-77
2022/09/30 03:29:57;;;;;;;7.30;5.28;;;9.10;99.90;;;;;;5030738;28;20040;-78
2022/09/30 03:32:37;;;;;;;8.27;5.05;;;9.10;99.90;;;;;;5030825;28;20018;-78
2022/09/30 03:35:18;;;;;;;8.40;4.07;;;9.20;99.90;;;;;;5030606;28;20049;-78
2022/09/30 03:38:01;;;;;;;9.43;5.20;;;9.20;99.90;;;;;;5030292;28;20478;-78
2022/09/30 03:40:37;;;;;;;5.80;4.32;;;9.20;99.90;;;;;;5030886;28;20041;-78
2022/09/30 03:43:21;;;;;;;6.82;3.75;;;9.20;99.90;;;;;;5030832;28;20044;-78
2022/09/30 03:45:51;;;;;;;8.52;5.05;;;9.20;99.90;;;;;;5030577;28;20025;-78
2022/09/30 03:48:19;;;;;;;7.03;4.07;;;9.20;99.90;;;;;;5030253;28;20033;-78
2022/09/30 03:50:48;;;;;;;5.85;4.20;;;9.20;99.90;;;;;;5030472;28;20539;-78
2022/09/30 03:53:15;;;;;;;15.23;6.97;;;9.20;99.90;;;;;;5029284;28;20030;-78
2022/09/30 03:55:49;;;;;;;5.53;3.25;;;9.20;99.90;;;;;;5028994;28;20048;-77
2022/09/30 03:58:16;;;;;;;6.32;3.95;;;9.30;99.90;;;;;;5030191;28;20021;-78
2022/09/30 04:00:51;;;;;;;8.52;5.60;;;9.30;99.90;;;;;;5030013;28;20738;-78
2022/09/30 04:03:18;;;;;;;5.38;4.10;;;;;;;;;;5012445;28;20371;-78
2022/09/30 04:05:45;;;;;;;7.15;4.63;;;9.40;99.90;;;;;;5030197;28;20026;-78
2022/09/30 04:08:11;;;;;;;7.57;5.07;;;;;;;;;;5030177;28;20041;-78
2022/09/30 04:10:42;;;;;;;8.07;3.80;;;9.40;99.90;;;;;;5030055;28;20035;-78
2022/09/30 04:13:09;;;;;;;6.22;4.20;;;9.30;99.90;;;;;;5012411;28;20068;-77
2022/09/30 04:15:39;;;;;;;7.15;4.82;;;9.30;99.90;;;;;;5029654;28;20018;-77
2022/09/30 04:18:08;;;;;;;11.65;5.32;;;9.20;99.90;;;;;;5030114;28;20048;-77
2022/09/30 04:20:37;;;;;;;9.02;4.53;;;;;;;;;;5029969;28;20027;-78
2022/09/30 04:23:02;;;;;;;9.18;4.40;;;8.80;99.90;;;;;;5030182;28;20025;-78
2022/09/30 04:25:29;;;;;;;8.88;3.65;;;;;;;;;;5029906;28;20032;-77
2022/09/30 04:27:55;;;;;;;9.68;5.82;;;9.30;99.90;;;;;;5029884;28;20103;-78
2022/09/30 04:30:21;;;;;;;11.20;5.32;;;;;;;;;;5029653;28;20496;-78
2022/09/30 04:32:47;;;;;;;6.78;5.60;;;;;;;;;;5029940;28;20025;-78
2022/09/30 04:35:14;;;;;;;13.23;5.20;;;9.20;99.90;;;;;;5030018;28;20057;-78
2022/09/30 04:37:46;;;;;;;14.50;4.90;;;9.30;99.90;;;;;;5011877;28;20028;-77
2022/09/30 04:40:14;;;;;;;9.23;5.47;;;9.30;99.90;;;;;;5012009;28;20063;-78
2022/09/30 04:42:41;;;;;;;9.95;4.35;;;;;;;;;;5029764;28;20026;-78
2022/09/30 04:45:11;;;;;;;8.35;4.68;;;9.10;99.90;;;;;;5029367;28;20121;-78
2022/09/30 04:47:37;;;;;;;9.85;5.13;;;;;;;;;;5028972;28;20048;-78
2022/09/30 04:50:05;;;;;;;10.73;4.05;;;9.30;99.90;;;;;;5029519;28;20105;-78
2022/09/30 04:52:31;;;;;;;7.85;4.82;;;;;;;;;;5029715;28;20029;-77
2022/09/30 04:54:57;;;;;;;5.50;3.65;;;;;;;;;;5029027;28;20044;-78
2022/09/30 04:57:24;;;;;;;9.68;5.22;;;;;;;;;;5029596;28;20022;-77
2022/09/30 04:59:50;;;;;;;10.38;5.65;;;;;;;;;;5029513;28;20224;-78
2022/09/30 05:02:16;;;;;;;9.23;4.63;;;;;;;;;;5029995;28;20059;-78
2022/09/30 05:04:42;;;;;;;6.45;3.95;;;;;;;;;;5029699;28;20026;-78
2022/09/30 05:07:08;;;;;;;9.52;5.22;;;;;;;;;;5029502;28;20180;-77
2022/09/30 05:09:35;;;;;;;7.25;4.70;;;;;;;;;;5029099;28;20072;-78
2022/09/30 05:12:02;;;;;;;7.45;4.38;;;;;;;;;;5029511;28;20025;-78
2022/09/30 05:14:28;;;;;;;6.95;4.18;;;9.30;99.90;;;;;;5011639;28;20051;-78
2022/09/30 05:16:54;;;;;;;11.95;5.90;;;;;;;;;;5020796;28;20018;-78
2022/09/30 05:19:20;;;;;;;11.90;6.13;;;;;;;;;;5006781;28;20101;-77
2022/09/30 05:21:46;;;;;;;7.88;4.60;;;;;;;;;;5010415;28;20032;-77
2022/09/30 05:24:13;;;;;;;14.93;7.95;;;;;;;;;;5010193;28;20139;-78
2022/09/30 05:26:39;;;;;;;9.90;6.35;;;;;;;;;;4999671;28;20397;-77
2022/09/30 05:29:05;;;;;;;16.48;7.07;;;9.00;99.90;;;;;;5017671;28;20192;-77
2022/09/30 05:31:31;;;;;;;8.80;7.30;;;;;;;;;;5000803;28;20025;-78
2022/09/30 05:33:58;;;;;;;17.98;8.07;;;;;;;;;;5015583;28;20034;-77
2022/09/30 05:36:23;;;;;;;12.88;7.03;;;;;;;;;;4993950;28;20033;-76
2022/09/30 05:38:51;;;;;;;7.90;5.78;;;9.40;99.90;;;;;;5017197;28;20026;-77
2022/09/30 05:41:18;;;;;;;8.68;5.65;;;;;;;;;;5014940;28;20018;-78
2022/09/30 05:43:46;;;;;;;9.40;5.25;;;;;;;;;;5000569;28;20292;-78
2022/09/30 05:46:12;;;;;;;8.00;5.13;;;;;;;;;;4999196;28;20198;-78
2022/09/30 05:48:38;;;;;;;11.57;8.13;;;;;;;;;;4983712;28;20041;-78
2022/09/30 05:51:05;;;;;;;14.95;7.45;;;8.80;99.90;;;;;;5000852;28;20246;-78
2022/09/30 05:53:31;;;;;;;9.93;8.52;;;8.80;99.90;;;;;;4966014;28;20031;-78
2022/09/30 05:55:58;;;;;;;19.83;7.32;;;;;;;;;;5000230;28;20054;-78
2022/09/30 05:58:23;;;;;;;17.25;6.55;;;8.70;99.90;;;;;;4981855;28;20018;-78
2022/09/30 06:00:50;;;;;;;10.82;6.53;;;;;;;;;;5002682;28;20037;-78
2022/09/30 06:03:16;;;;;;;15.57;7.75;;;8.80;99.90;;;;;;5002728;28;20026;-78
2022/09/30 06:05:44;;;;;;;16.48;7.13;;;9.30;99.90;;;;;;5004134;28;20340;-78
2022/09/30 06:08:10;;;;;;;17.45;8.57;;;8.90;99.90;;;;;;5022919;28;20396;-78
2022/09/30 06:10:37;;;;;;;9.52;8.45;;;;;;;;;;5023028;28;20169;-78
2022/09/30 06:13:04;;;;;;;11.55;7.85;;;8.90;99.90;;;;;;5023330;28;20022;-78
2022/09/30 06:15:30;;;;;;;21.42;7.45;;;;;;;;;;5023140;28;20302;-78
2022/09/30 06:17:57;;;;;;;15.15;6.55;;;;;;;;;;5023011;28;20096;-78
2022/09/30 06:20:23;;;;;;;15.27;7.75;;;;;;;;;;5001569;28;20034;-78
2022/09/30 06:22:49;;;;;;;9.68;5.63;;;;;;;;;;4997676;28;20082;-78
2022/09/30 06:25:15;;;;;;;17.50;9.48;;;9.10;99.90;;;;;;5003267;28;20027;-78
2022/09/30 06:27:45;;;;;;;13.30;8.40;;;9.10;99.90;;;;;;5003171;28;20034;-78
2022/09/30 06:30:11;;;;;;;10.40;5.32;;;;;;;;;;5002274;28;20038;-77
2022/09/30 06:32:37;;;;;;;8.10;4.30;;;;;;;;;;5001732;28;20038;-78
2022/09/30 06:35:03;;;;;;;11.18;7.25;;;;;;;;;;5010206;28;20287;-78
2022/09/30 06:37:29;;;;;;;8.88;5.43;;;9.30;99.90;;;;;;5021215;28;20202;-78
2022/09/30 06:39:55;;;;;;;13.63;6.72;;;9.40;99.90;;;;;;5010096;28;20030;-79
2022/09/30 06:42:23;;;;;;;12.55;7.43;;;;;;;;;;5012963;28;20089;-77
2022/09/30 06:44:50;;;;;;;10.50;5.78;;;9.40;99.90;;;;;;5015033;28;20203;-77
2022/09/30 06:47:17;;;;;;;14.50;7.07;;;;;;;;;;5019376;28;20026;-78
2022/09/30 06:49:43;;;;;;;8.52;5.65;;;;;;;;;;5008266;28;20485;-78
2022/09/30 06:52:12;;;;;;;9.27;5.55;;;9.30;99.90;;;;;;5008410;28;20030;-78
2022/09/30 06:54:42;;;;;;;11.98;6.80;;;9.40;99.90;;;;;;5007981;28;20569;-78
2022/09/30 06:57:08;;;;;;;;;;;9.40;99.90;;;;;;5013501;28;20037;-78
2022/09/30 06:59:34;;;;;;;10.45;5.35;;;;;;;;;;5019357;28;19960;-79
2022/09/30 07:02:00;;;;;;;7.80;6.90;;;;;;;;;;4997584;28;20034;-78
2022/09/30 07:04:26;;;;;;;19.55;7.05;;;;;;;;;;5008074;28;20069;-78
2022/09/30 07:06:53;;;;;;;14.82;7.72;;;;;;;;;;5006992;28;20477;-78
2022/09/30 07:09:19;;;;;;;15.88;7.35;;;;;;;;;;4989061;28;20030;-78
2022/09/30 07:11:45;;;;;;;11.55;5.32;;;;;;;;;;5005673;28;20528;-78
2022/09/30 07:14:12;;;;;;;10.35;5.35;;;;;;;;;;5006445;28;20257;-78
2022/09/30 07:16:38;;;;;;;7.88;5.85;;;;;;;;;;4988891;28;20139;-78
2022/09/30 07:19:09;;;;;;;8.82;4.88;;;11.50;99.90;;;;;;5007087;28;20475;-77
2022/09/30 07:21:38;;;;;;;6.25;4.70;;;10.50;99.90;;;;;;5008302;28;20430;-77
2022/09/30 07:24:04;;;;;;;9.20;5.07;;;;;;;;;;5009927;28;20034;-78
2022/09/30 07:26:30;;;;;;;17.70;5.57;;;;;;;;;;5009188;28;20652;-78
2022/09/30 07:28:56;;;;;;;6.03;4.22;;;;;;;;;;5014370;28;20088;-78
2022/09/30 07:31:24;;;;;;;10.25;5.35;;;7.50;99.90;;;;;;5018685;28;20030;-77
2022/09/30 07:33:50;;;;;;;7.35;3.80;;;;;;;;;;5004106;28;20178;-78
2022/09/30 07:36:18;;;;;;;8.90;4.22;;;10.30;99.90;;;;;;5015521;28;20042;-77
2022/09/30 07:38:50;;;;;;;5.47;3.63;;;;;;;;;;5019508;28;20050;-77
2022/09/30 07:41:20;;;;;;;6.10;3.25;;;10.30;99.90;;;;;;5002276;28;20141;-77
2022/09/30 07:43:47;;;;;;;14.25;3.47;;;10.30;99.90;;;;;;5017750;28;20109;-82
2022/09/30 07:46:13;;;;;;;10.73;4.32;;;;;;;;;;5014010;28;20109;-78
2022/09/30 07:48:44;;;;;;;4.90;2.53;;;10.40;99.90;;;;;;5010242;28;20068;-79
2022/09/30 07:51:32;;;;;;;4.55;2.42;;;10.40;99.90;;;;;;5008553;28;20040;-81
2022/09/30 07:54:00;;;;;;;5.20;2.95;;;10.20;99.90;;;;;;5010413;28;20030;-79
2022/09/30 07:56:26;;;;;;;2.13;2.03;;;;;;;;;;5005842;28;20018;-78
2022/09/30 07:59:01;;;;;;;4.25;2.72;;;10.40;99.90;;;;;;5020408;28;20026;-77
2022/09/30 08:01:30;;;;;;;3.80;2.53;;;10.70;99.90;;;;;;5010321;28;20037;-79
2022/09/30 08:03:58;;;;;;;3.13;2.78;;;10.80;99.90;;;;;;5009440;28;20542;-80
2022/09/30 08:06:25;;;;;;;4.13;2.50;;;10.70;99.90;;;;;;4993183;28;20022;-79
2022/09/30 08:08:53;;;;;;;5.78;2.60;;;10.60;99.90;;;;;;5010106;28;20077;-80
2022/09/30 08:11:19;;;;;;;8.88;2.53;;;;;;;;;;5009611;28;20037;-78
2022/09/30 08:13:50;;;;;;;4.72;3.05;;;10.70;99.90;;;;;;4991369;28;20037;-79
2022/09/30 08:16:16;;;;;;;4.85;3.28;;;;;;;;;;4990142;28;20037;-78
2022/09/30 08:18:42;;;;;;;6.25;2.85;;;;;;;;;;5007681;28;20099;-78
2022/09/30 08:21:08;;;;;;;5.47;3.45;;;10.60;99.90;;;;;;5008685;28;20029;-80
2022/09/30 08:23:37;;;;;;;6.97;4.05;;;10.70;99.90;;;;;;5007947;28;20459;-79
2022/09/30 08:26:10;;;;;;;5.57;3.55;;;10.80;99.90;;;;;;5007334;28;20029;-78
2022/09/30 08:28:37;;;;;;;7.13;3.42;;;;;;;;;;5006295;28;20213;-78
2022/09/30 08:31:22;;;;;;;4.80;3.00;;;11.00;99.90;;;;;;5007039;28;20053;-79
2022/09/30 08:33:49;;;;;;;4.45;3.42;;;;;;;;;;4990212;28;20048;-77
2022/09/30 08:36:17;;;;;;;4.47;2.58;;;10.90;99.90;;;;;;5007652;28;20038;-77
2022/09/30 08:38:43;;;;;;;6.03;3.15;;;;;;;;;;4989795;28;20021;-79
2022/09/30 08:41:31;;;;;;;5.53;3.33;;;10.90;99.90;;;;;;4988784;28;20056;-78
2022/09/30 08:43:59;;;;;;;7.22;4.18;;;11.10;99.90;;;;;;4988542;28;20450;-77
2022/09/30 08:46:39;;;;;;;4.05;3.45;;;11.10;99.90;;;;;;4984621;28;20116;-78
2022/09/30 08:49:06;;;;;;;5.22;3.47;;;;;;;;;;4982323;28;20042;-79
2022/09/30 08:51:44;;;;;;;11.65;3.53;;;11.20;99.90;;;;;;5021579;28;20037;-78
2022/09/30 08:54:15;;;;;;;3.80;2.70;;;11.30;99.90;;;;;;5006876;28;20030;-78
2022/09/30 08:56:43;;;;;;;4.07;2.42;;;11.30;99.90;;;;;;4989057;28;20073;-77
2022/09/30 08:59:29;;;;;;;2.78;2.15;;;11.30;99.90;;;;;;4989121;28;20033;-77
2022/09/30 09:02:13;;;;;;;3.55;2.97;;;11.30;99.90;;;;;;5006885;28;20026;-78
2022/09/30 09:04:39;;;;;;;3.08;2.15;;;;;;;;;;5009293;28;20030;-78
2022/09/30 09:07:24;;;;;;;3.58;2.60;;;11.10;99.90;;;;;;5025331;28;20034;-78
2022/09/30 09:10:01;;;;;;;3.53;1.65;;;11.00;99.90;;;;;;4990247;28;20394;-78
2022/09/30 09:12:55;;;;;;;5.80;3.35;;;10.80;99.90;;;;;;5021689;28;20129;-78
2022/09/30 09:15:21;;;;;;;11.18;2.70;;;;;;;;;;4988992;28;20797;-77
2022/09/30 09:18:12;;;;;;;4.72;3.03;;;10.90;99.90;;;;;;5021523;28;20034;-78
2022/09/30 09:20:46;;;;;;;3.85;1.83;;;11.30;99.90;;;;;;5006769;28;20137;-78
2022/09/30 09:23:13;;;;;;;5.43;2.97;;;11.40;99.90;;;;;;5006685;28;20497;-78
2022/09/30 09:25:39;;;;;;;5.72;2.47;;;;;;;;;;5006532;28;20122;-78
2022/09/30 09:28:34;;;;;;;4.97;3.20;;;11.30;99.90;;;;;;5015101;28;20133;-78
2022/09/30 09:31:01;;;;;;;4.85;3.10;;;11.50;99.90;;;;;;5007799;28;20029;-79
2022/09/30 09:33:34;;;;;;;3.38;2.60;;;11.50;99.90;;;;;;5017551;28;20048;-79
2022/09/30 09:36:25;;;;;;;4.65;3.38;;;11.60;99.90;;;;;;5020872;28;20046;-78
2022/09/30 09:39:00;;;;;;;6.45;3.00;;;11.80;99.90;;;;;;5001646;28;20093;-78
2022/09/30 09:41:47;;;;;;;6.40;3.70;;;9.70;99.90;;;;;;5002017;28;20031;-78
2022/09/30 09:44:29;;;;;;;5.32;2.53;;;11.70;99.90;;;;;;5001674;28;20030;-78
2022/09/30 09:47:14;;;;;;;3.78;2.67;;;11.90;99.90;;;;;;5007151;28;20365;-79
2022/09/30 09:49:54;;;;;;;2.22;2.03;;;12.00;99.90;;;;;;4983826;28;20052;-79
2022/09/30 09:52:22;;;;;;;2.95;2.38;;;;;;;;;;5001586;28;20022;-79
2022/09/30 09:54:56;;;;;;;3.38;2.10;;;12.40;99.90;;;;;;5006174;28;20026;-78
2022/09/30 09:57:30;;;;;;;4.25;3.08;;;12.00;99.90;;;;;;5020797;28;20022;-78
2022/09/30 10:02:57;;;;;;;6.32;2.05;;;12.30;99.90;;;;;;5010933;28;20168;-78
2022/09/30 10:05:27;;;;;;;10.90;3.95;;;12.30;99.90;;;;;;5010688;28;20025;-79
2022/09/30 10:08:08;;;;;;;3.17;2.63;;;12.20;99.90;;;;;;5009643;28;20030;-78
2022/09/30 10:10:43;;;;;;;2.58;2.13;;;12.20;99.90;;;;;;5010702;28;20413;-78
2022/09/30 10:13:17;;;;;;;8.93;3.17;;;11.90;99.90;;;;;;5012133;28;20030;-78
2022/09/30 10:15:43;;;;;;;5.53;2.42;;;;;;;;;;5012613;28;20010;-78
2022/09/30 10:18:20;;;;;;;3.58;2.25;;;11.80;99.90;;;;;;5011632;28;20026;-78
2022/09/30 10:20:52;;;;;;;3.65;2.22;;;11.80;99.90;;;;;;5011386;28;20052;-78
2022/09/30 10:23:21;;;;;;;3.97;2.75;;;11.70;99.90;;;;;;5010899;28;20255;-77
2022/09/30 10:26:07;;;;;;;3.55;2.05;;;11.80;99.90;;;;;;5010237;28;20505;-75
2022/09/30 10:28:54;;;;;;;4.60;2.00;;;11.90;99.90;;;;;;5009037;28;20037;-76
2022/09/30 10:31:36;;;;;;;2.33;1.65;;;12.00;99.90;;;;;;5017232;28;20048;-78
2022/09/30 10:34:04;;;;;;;2.90;2.55;;;;;;;;;;5009293;28;20386;-76
2022/09/30 10:36:35;;;;;;;2.92;2.13;;;12.10;99.90;;;;;;4992039;28;20083;-77
2022/09/30 10:39:25;;;;;;;3.47;2.58;;;12.30;99.90;;;;;;5009936;28;20033;-77
2022/09/30 10:42:15;;;;;;;3.45;2.03;;;12.40;99.90;;;;;;4992523;28;20513;-77
2022/09/30 10:44:48;;;;;;;;;;;12.50;99.90;;;;;;5010174;28;20188;-76
2022/09/30 10:47:25;;;;;;;3.78;1.73;;;12.90;99.90;;;;;;4991954;28;20004;-77
2022/09/30 10:49:59;;;;;;;3.85;2.15;;;13.10;99.90;;;;;;5011340;28;20041;-77
2022/09/30 10:52:31;;;;;;;4.55;2.38;;;13.00;99.90;;;;;;5010441;28;20101;-77
2022/09/30 10:54:59;;;;;;;5.03;2.42;;;12.90;99.90;;;;;;5010547;28;20049;-76
2022/09/30 10:57:26;;;;;;;3.45;1.60;;;;;;;;;;5009066;28;20026;-77
2022/09/30 11:00:12;;;;;;;5.35;2.65;;;12.60;99.90;;;;;;5008335;28;20022;-77
2022/09/30 11:03:11;;;;;;;6.85;3.03;;;12.60;99.90;;;;;;4992555;28;20510;-77
2022/09/30 11:05:43;;;;;;;3.10;2.40;;;12.60;99.90;;;;;;5005672;28;20038;-77
2022/09/30 11:08:28;;;;;;;2.90;2.53;;;12.60;99.90;;;;;;5008625;28;20048;-77
2022/09/30 11:11:13;;;;;;;2.63;1.70;;;13.00;99.90;;;;;;5008429;28;20422;-77
2022/09/30 11:13:55;;;;;;;3.45;1.95;;;12.80;99.90;;;;;;4991292;28;20423;-77
2022/09/30 11:16:36;;;;;;;3.35;2.15;;;13.00;99.90;;;;;;5008657;28;20041;-77
2022/09/30 11:19:18;;;;;;;3.10;2.70;;;12.90;99.90;;;;;;5008580;28;20105;-77
2022/09/30 11:21:59;;;;;;;4.47;2.10;;;13.00;99.90;;;;;;5008207;28;20026;-78
2022/09/30 11:24:44;;;;;;;3.63;1.80;;;13.00;99.90;;;;;;5008359;28;20030;-78
2022/09/30 11:27:35;;;;;;;2.08;1.50;;;13.60;99.90;;;;;;5008008;28;20025;-76
2022/09/30 11:30:36;;;;;;;2.83;1.80;;;14.20;99.90;;;;;;5008198;28;20390;-77
2022/09/30 11:33:11;;;;;;;3.90;2.20;;;14.20;99.90;;;;;;5007403;28;20041;-77
2022/09/30 11:35:51;;;;;;;4.13;2.25;;;14.20;99.90;;;;;;4982550;28;20137;-76
2022/09/30 11:38:46;;;;;;;4.03;2.08;;;14.40;99.90;;;;;;5008154;28;20038;-77
2022/09/30 11:41:12;;;;;;;7.13;2.65;;;;;;;;;;5008113;28;20465;-77
2022/09/30 11:43:59;;;;;;;2.10;1.70;;;14.90;99.90;;;;;;5008412;28;20164;-77
2022/09/30 11:46:41;;;;;;;3.95;2.20;;;15.50;99.90;;;;;;4993632;28;20111;-77
2022/09/30 11:49:37;;;;;;;4.45;2.25;;;15.60;99.90;;;;;;5011528;28;20599;-76
2022/09/30 11:52:47;;;;;;;2.20;1.65;;;15.80;99.90;;;;;;4993631;28;20466;-77
2022/09/30 11:55:27;;;;;;;1.27;1.20;;;15.90;99.90;;;;;;4979404;28;20030;-78
2022/09/30 11:57:59;;;;;;;1.83;1.45;;;15.90;99.90;;;;;;5006888;28;20387;-79
2022/09/30 12:00:26;;;;;;;3.90;1.27;;;16.00;99.90;;;;;;4989738;28;20037;-78
2022/09/30 12:03:17;;;;;;;1.60;1.02;;;17.10;99.90;;;;;;5007448;28;20022;-78
2022/09/30 12:05:52;;;;;;;1.50;1.40;;;17.80;99.90;;;;;;5000237;28;20151;-77
2022/09/30 12:08:32;;;;;;;1.40;1.30;;;17.00;99.90;;;;;;5007326;28;20033;-77
2022/09/30 12:11:09;;;;;;;2.08;1.75;;;17.10;99.90;;;;;;5007737;28;20022;-78
2022/09/30 12:13:50;;;;;;;2.70;1.40;;;17.40;99.90;;;;;;4989448;28;20441;-77
2022/09/30 12:16:20;;;;;;;4.57;1.30;;;17.20;99.90;;;;;;5006901;28;20022;-78
2022/09/30 12:18:55;;;;;;;2.67;1.60;;;16.40;99.90;;;;;;5007280;28;20029;-76
2022/09/30 12:21:31;;;;;;;4.03;1.50;;;15.80;99.90;;;;;;5007595;28;20026;-77
2022/09/30 12:24:21;;;;;;;1.58;1.08;;;16.40;99.90;;;;;;5006131;28;20053;-77
2022/09/30 12:26:47;;;;;;;1.90;1.40;;;17.50;99.90;;;;;;5007688;28;20084;-78
2022/09/30 12:32:22;;;;;;;2.13;1.67;;;18.80;95.00;;;;;;4992359;28;20121;-77
2022/09/30 12:34:54;;;;;;;5.50;1.10;;;19.70;90.60;;;;;;5010281;28;20070;-78
2022/09/30 12:37:29;;;;;;;3.28;1.35;;;20.30;76.80;;;;;;5006590;28;20033;-78
2022/09/30 12:40:13;;;;;;;1.60;1.42;;;20.30;76.10;;;;;;5022868;28;20032;-77
2022/09/30 12:42:57;;;;;;;1.00;0.77;;;20.30;76.20;;;;;;5007003;28;20490;-78
2022/09/30 12:45:44;;;;;;;1.75;1.65;;;23.30;68.60;;;;;;5007301;28;20108;-79
2022/09/30 12:48:17;;;;;;;1.02;0.90;;;22.80;63.10;;;;;;5007081;28;20030;-78
2022/09/30 12:50:53;;;;;;;1.80;0.98;;;22.20;62.10;;;;;;5007005;28;20557;-77
2022/09/30 12:53:29;;;;;;;1.20;1.10;;;20.80;65.50;;;;;;5006811;28;20080;-77
2022/09/30 12:56:13;;;;;;;0.80;0.80;;;19.00;69.80;;;;;;5007091;28;20205;-77
2022/09/30 12:58:53;;;;;;;2.63;0.98;;;18.20;74.10;;;;;;5006871;28;20089;-78
2022/09/30 13:01:29;;;;;;;1.88;0.77;;;18.20;74.00;;;;;;5005593;28;20029;-78
2022/09/30 13:03:58;;;;;;;1.88;1.25;;;17.60;75.80;;;;;;5006404;28;20057;-79
2022/09/30 13:06:25;;;;;;;1.88;1.15;;;17.20;78.40;;;;;;5006117;28;20541;-79
2022/09/30 13:09:26;;;;;;;0.93;0.75;;;17.30;82.40;;;;;;5006366;28;20112;-78
2022/09/30 13:11:54;;;;;;;0.75;0.75;;;17.70;78.90;;;;;;4996890;28;20056;-78
2022/09/30 13:14:29;;;;;;;1.45;1.15;;;18.10;79.90;;;;;;5010655;28;20061;-77
2022/09/30 13:17:00;;;;;;;3.67;1.02;;;18.10;79.20;;;;;;5011871;28;20034;-77
2022/09/30 13:19:41;;;;;;;1.55;1.45;;;17.80;79.70;;;;;;5010493;28;20038;-76
2022/09/30 13:24:57;;;;;;;1.00;0.60;;;17.50;79.20;;;;;;5011826;28;20037;-78
2022/09/30 13:27:39;;;;;;;2.92;1.70;;;17.40;82.60;;;;;;5027816;28;20048;-76
2022/09/30 13:30:16;;;;;;;1.33;1.02;;;18.10;81.20;;;;;;5012436;28;20037;-77
2022/09/30 13:33:25;;;;;;;1.52;1.42;;;18.70;80.20;;;;;;5012620;28;20088;-77
2022/09/30 13:35:51;;;;;;;3.17;1.23;;;18.70;80.00;;;;;;5011263;28;20049;-76
2022/09/30 13:38:17;;;;;;;1.15;0.90;;;18.60;78.40;;;;;;5012793;28;20026;-77
2022/09/30 13:40:50;;;;;;;1.20;0.98;;;17.90;79.00;;;;;;5012888;28;20104;-78
2022/09/30 13:43:59;;;;;;;2.25;1.52;;;17.30;85.10;;;;;;5009803;28;20034;-77
2022/09/30 13:46:50;;;;;;;0.95;0.93;;;17.20;86.20;;;;;;4989060;28;20037;-77
2022/09/30 13:49:24;;;;;;;0.95;0.85;;;16.80;90.70;;;;;;5003548;28;20053;-76
2022/09/30 13:51:51;;;;;;;1.85;1.48;;;16.80;91.30;;;;;;5010099;28;20028;-78
2022/09/30 13:54:34;;;;;;;0.73;0.68;;;16.00;95.60;;;;;;5010249;28;20517;-78
2022/09/30 13:57:02;;;;;;;3.22;0.80;;;16.10;99.40;;;;;;4992717;28;20132;-77
2022/09/30 13:59:31;;;;;;;0.80;0.60;;;16.30;99.90;;;;;;5009707;28;20026;-77
2022/09/30 14:02:02;;;;;;;1.88;1.15;;;16.30;99.90;;;;;;5009754;28;20026;-77